Time;durP1;ratioP1;P1;durP2;ratioP2;P2;SDS_P1;SDS_P2;PMS_P1;PMS_P2;Temp;Humidity;BMP_temperature;BMP_pressure;BME280_temperature;BME280_humidity;BME280_pressure;Samples;Min_cycle;Max_cycle;Signal;HPM_P1;HPM_P2
2023/11/16 00:01:22;;;;;;;9.63;4.13;;;;;;;8.89;100.00;100549.34;5015340;28;20048;-82
2023/11/16 00:03:53;;;;;;;13.70;4.63;;;;;;;8.92;100.00;100556.31;5011895;28;20052;-78
2023/11/16 00:06:21;;;;;;;7.07;3.83;;;;;;;8.88;100.00;100554.59;5012132;28;20070;-79
2023/11/16 00:08:51;;;;;;;8.15;4.40;;;;;;;8.87;100.00;100548.47;4995644;28;20054;-77
2023/11/16 00:11:19;;;;;;;14.05;4.65;;;;;;;8.90;100.00;100542.38;5010954;28;20096;-79
2023/11/16 00:13:46;;;;;;;8.93;4.15;;;;;;;8.96;100.00;100539.75;5015073;28;20090;-78
2023/11/16 00:16:16;;;;;;;8.10;3.90;;;;;;;8.91;100.00;100550.19;5031429;28;20611;-79
2023/11/16 00:18:44;;;;;;;9.00;4.18;;;;;;;8.93;100.00;100543.22;5011523;28;20555;-80
2023/11/16 00:21:10;;;;;;;12.95;4.07;;;;;;;8.96;100.00;100541.47;5016375;28;20464;-78
2023/11/16 00:23:37;;;;;;;8.18;3.95;;;;;;;8.88;100.00;100542.38;4999226;28;20172;-77
2023/11/16 00:26:04;;;;;;;9.68;3.80;;;;;;;8.90;100.00;100538.03;5017450;28;20442;-81
2023/11/16 00:28:31;;;;;;;9.88;4.82;;;;;;;8.88;100.00;100531.09;5010813;28;20569;-82
2023/11/16 00:30:58;;;;;;;10.85;4.30;;;;;;;8.92;100.00;100532.81;5011075;28;21075;-78
2023/11/16 00:33:25;;;;;;;6.18;4.30;;;;;;;8.93;100.00;100526.72;5019669;28;20080;-81
2023/11/16 00:35:55;;;;;;;9.30;4.43;;;;;;;8.93;100.00;100535.41;5011861;28;20151;-83
2023/11/16 00:38:21;;;;;;;6.20;3.63;;;;;;;8.92;100.00;100533.66;5012092;28;20583;-79
2023/11/16 00:40:48;;;;;;;9.57;4.32;;;;;;;8.94;100.00;100537.16;5001022;28;20049;-77
2023/11/16 00:43:15;;;;;;;12.35;4.70;;;;;;;8.96;100.00;100525.81;5021168;28;20051;-78
2023/11/16 00:45:43;;;;;;;11.95;3.67;;;;;;;8.90;100.00;100538.03;5018421;28;20136;-81
2023/11/16 00:48:09;;;;;;;9.88;4.13;;;;;;;8.88;100.00;100534.56;5016636;28;20050;-79
2023/11/16 00:50:36;;;;;;;8.00;3.20;;;;;;;8.89;100.00;100527.56;5018377;28;20048;-81
2023/11/16 00:53:03;;;;;;;6.32;3.47;;;;;;;8.91;100.00;100531.06;5028138;28;20045;-81
2023/11/16 00:55:33;;;;;;;7.15;3.38;;;;;;;8.85;100.00;100534.56;5022077;28;20045;-78
2023/11/16 00:58:00;;;;;;;5.80;3.50;;;;;;;8.82;100.00;100518.06;5022268;28;20129;-80
2023/11/16 01:00:28;;;;;;;9.20;3.22;;;;;;;8.83;100.00;100525.88;5013165;28;20050;-77
2023/11/16 01:02:56;;;;;;;5.85;3.28;;;;;;;8.87;100.00;100526.72;5021318;28;20495;-77
2023/11/16 01:05:24;;;;;;;9.48;4.22;;;;;;;8.76;100.00;100526.75;5016532;28;20049;-81
2023/11/16 01:07:53;;;;;;;11.32;4.13;;;;;;;8.80;100.00;100522.41;5030673;28;20399;-81
2023/11/16 01:10:23;;;;;;;9.05;3.47;;;;;;;8.77;100.00;100512.84;5011280;28;20606;-78
2023/11/16 01:12:52;;;;;;;8.02;3.30;;;;;;;8.78;100.00;100519.78;5016530;28;20654;-79
2023/11/16 01:15:20;;;;;;;4.63;2.85;;;;;;;8.76;100.00;100521.53;5005479;28;20034;-77
2023/11/16 01:17:48;;;;;;;11.63;3.15;;;;;;;8.74;100.00;100523.28;5018435;28;20049;-77
2023/11/16 01:20:19;;;;;;;7.63;3.95;;;;;;;8.74;100.00;100505.88;5018974;28;20073;-79
2023/11/16 01:23:01;;;;;;;7.28;3.30;;;;;;;8.74;100.00;100515.47;5005251;28;20045;-77
2023/11/16 01:25:32;;;;;;;6.32;3.47;;;;;;;8.74;100.00;100510.25;5017126;28;20042;-80
2023/11/16 01:28:00;;;;;;;4.63;2.85;;;;;;;8.66;100.00;100506.81;5021805;28;20069;-83
2023/11/16 01:30:27;;;;;;;11.93;5.00;;;;;;;8.72;100.00;100501.53;5012233;28;20139;-79
2023/11/16 01:32:53;;;;;;;5.70;3.00;;;;;;;8.70;100.00;100509.38;5002201;28;20095;-77
2023/11/16 01:35:21;;;;;;;8.27;2.97;;;;;;;8.78;100.00;100514.56;5023238;28;20030;-79
2023/11/16 01:37:52;;;;;;;5.60;3.38;;;;;;;8.80;100.00;100515.44;5015790;28;20046;-79
2023/11/16 01:40:24;;;;;;;10.40;3.60;;;;;;;8.76;100.00;100511.97;5009788;28;20034;-79
2023/11/16 01:42:50;;;;;;;7.13;3.92;;;;;;;8.78;100.00;100511.97;4996008;28;20146;-80
2023/11/16 01:45:28;;;;;;;5.95;2.85;;;;;;;8.78;100.00;100509.34;5017865;28;20461;-78
2023/11/16 01:48:00;;;;;;;5.78;2.90;;;;;;;8.70;100.00;100508.53;5030451;28;20041;-78
2023/11/16 01:50:45;;;;;;;3.88;2.92;;;;;;;8.75;100.00;100501.56;5011017;28;20046;-77
2023/11/16 01:53:13;;;;;;;8.82;3.97;;;;;;;8.74;100.00;100491.97;5031960;28;20677;-78
2023/11/16 01:55:59;;;;;;;7.35;3.42;;;;;;;8.67;100.00;100487.66;5014034;28;20045;-77
2023/11/16 01:58:27;;;;;;;6.85;4.72;;;;;;;8.73;100.00;100498.06;5011071;28;20049;-79
2023/11/16 02:00:53;;;;;;;14.68;5.25;;;;;;;8.72;100.00;100496.31;5007974;28;20670;-83
2023/11/16 02:03:20;;;;;;;9.05;4.50;;;;;;;8.75;100.00;100498.94;5018448;28;20599;-80
2023/11/16 02:05:47;;;;;;;5.18;3.70;;;;;;;8.78;100.00;100502.38;5001087;28;20140;-80
2023/11/16 02:08:13;;;;;;;8.02;3.95;;;;;;;8.74;100.00;100502.41;5018164;28;20449;-79
2023/11/16 02:10:41;;;;;;;9.60;3.97;;;;;;;8.71;100.00;100507.66;5016169;28;20821;-76
2023/11/16 02:13:21;;;;;;;28.60;5.80;;;;;;;8.72;100.00;100517.19;4999148;28;20045;-80
2023/11/16 02:15:55;;;;;;;5.47;4.15;;;;;;;8.66;100.00;100510.28;4996572;28;20046;-75
2023/11/16 02:18:23;;;;;;;9.13;3.15;;;;;;;8.63;100.00;100505.06;4983224;28;20445;-78
2023/11/16 02:20:53;;;;;;;10.95;4.50;;;;;;;8.64;100.00;100501.56;4998697;28;20385;-78
2023/11/16 02:23:19;;;;;;;8.63;4.18;;;;;;;8.55;100.00;100499.00;4987478;28;20419;-78
2023/11/16 02:25:52;;;;;;;7.43;3.85;;;;;;;8.54;100.00;100498.13;4994754;28;20153;-77
2023/11/16 02:28:22;;;;;;;5.22;3.92;;;;;;;8.52;100.00;100499.88;5012461;28;20050;-77
2023/11/16 02:30:53;;;;;;;6.35;3.63;;;;;;;8.55;100.00;100501.59;4997355;28;20050;-78
2023/11/16 02:33:20;;;;;;;5.85;4.05;;;;;;;8.59;100.00;100503.31;4998652;28;20038;-79
2023/11/16 02:35:46;;;;;;;11.32;4.13;;;;;;;8.61;100.00;100504.19;4990849;28;20785;-79
2023/11/16 02:38:13;;;;;;;7.05;4.32;;;;;;;8.59;100.00;100498.09;4984348;28;20710;-81
2023/11/16 02:40:41;;;;;;;9.45;3.65;;;;;;;8.58;100.00;100491.19;4978594;28;20093;-81
2023/11/16 02:43:07;;;;;;;13.65;4.25;;;;;;;8.57;100.00;100490.28;4995237;28;20073;-79
2023/11/16 02:45:35;;;;;;;7.90;3.30;;;;;;;8.60;100.00;100495.50;4970075;28;20050;-79
2023/11/16 02:48:04;;;;;;;8.50;3.58;;;;;;;8.56;100.00;100492.91;4991098;28;20045;-82
2023/11/16 02:50:31;;;;;;;11.02;4.43;;;;;;;8.54;100.00;100492.03;4992037;28;20129;-79
2023/11/16 02:52:57;;;;;;;5.00;3.75;;;;;;;8.59;100.00;100496.38;4994445;28;20069;-80
2023/11/16 02:55:27;;;;;;;6.55;3.97;;;;;;;8.55;100.00;100492.06;4982988;28;20145;-79
2023/11/16 02:57:57;;;;;;;8.38;3.70;;;;;;;8.55;100.00;100476.41;5008964;28;20125;-78
2023/11/16 03:00:25;;;;;;;11.18;3.78;;;;;;;8.56;100.00;100485.09;4995430;28;20081;-80
2023/11/16 03:02:51;;;;;;;11.48;3.35;;;;;;;8.59;100.00;100492.88;4992073;28;20042;-76
2023/11/16 03:05:20;;;;;;;7.93;4.18;;;;;;;8.65;100.00;100490.25;4975740;28;20042;-81
2023/11/16 03:07:50;;;;;;;6.60;3.45;;;;;;;8.66;100.00;100494.63;4979820;28;20061;-82
2023/11/16 03:10:17;;;;;;;6.53;3.47;;;;;;;8.69;100.00;100485.91;4995887;28;20056;-82
2023/11/16 03:12:45;;;;;;;8.45;3.67;;;;;;;8.66;100.00;100488.53;5022043;28;20049;-80
2023/11/16 03:15:12;;;;;;;9.88;3.95;;;;;;;8.70;100.00;100487.66;5005873;28;20066;-78
2023/11/16 03:17:39;;;;;;;6.40;3.40;;;;;;;8.65;100.00;100492.00;4994899;28;20124;-79
2023/11/16 03:20:09;;;;;;;5.07;2.63;;;;;;;8.67;100.00;100496.34;5001755;28;20055;-77
2023/11/16 03:22:37;;;;;;;8.07;2.58;;;;;;;8.67;100.00;100485.91;5028257;28;20038;-80
2023/11/16 03:25:09;;;;;;;8.98;3.30;;;;;;;8.69;100.00;100484.16;5013024;28;20053;-79
2023/11/16 03:27:36;;;;;;;5.53;2.60;;;;;;;8.70;100.00;100474.59;5027981;28;20037;-78
2023/11/16 03:30:04;;;;;;;9.88;3.13;;;;;;;8.67;100.00;100475.47;5016926;28;20054;-82
2023/11/16 03:32:31;;;;;;;9.32;3.13;;;;;;;8.66;100.00;100481.56;4997886;28;20088;-79
2023/11/16 03:34:58;;;;;;;7.28;2.88;;;;;;;8.71;100.00;100477.19;5006480;28;20479;-80
2023/11/16 03:37:25;;;;;;;8.80;3.35;;;;;;;8.72;100.00;100489.38;5019048;28;20048;-78
2023/11/16 03:39:52;;;;;;;6.93;2.58;;;;;;;8.70;100.00;100487.66;5011381;28;20099;-78
2023/11/16 03:42:20;;;;;;;7.75;2.47;;;;;;;8.78;100.00;100473.66;5017483;28;20081;-78
2023/11/16 03:44:46;;;;;;;4.28;2.22;;;;;;;8.81;100.00;100491.06;5007854;28;20156;-76
2023/11/16 03:47:13;;;;;;;16.60;5.72;;;;;;;8.84;100.00;100492.78;4998841;28;20136;-81
2023/11/16 03:49:39;;;;;;;8.32;2.35;;;;;;;8.81;100.00;100483.22;5013921;28;20505;-80
2023/11/16 03:52:06;;;;;;;3.85;1.95;;;;;;;8.75;100.00;100475.44;5013154;28;20128;-81
2023/11/16 03:54:33;;;;;;;5.95;2.33;;;;;;;8.75;100.00;100483.28;5004575;28;20041;-78
2023/11/16 03:57:00;;;;;;;6.93;1.60;;;;;;;8.65;100.00;100481.56;5013745;28;20037;-82
2023/11/16 03:59:26;;;;;;;4.03;1.95;;;;;;;8.66;100.00;100481.56;5017633;28;20045;-82
2023/11/16 04:01:53;;;;;;;9.43;2.03;;;;;;;8.66;100.00;100489.41;5012659;28;20552;-77
2023/11/16 04:04:20;;;;;;;3.55;2.00;;;;;;;8.64;99.42;100467.66;5006346;28;20037;-81
2023/11/16 04:06:47;;;;;;;1.77;1.20;;;;;;;8.72;97.62;100465.91;5005193;28;20038;-79
2023/11/16 04:09:17;;;;;;;4.00;1.17;;;;;;;8.71;97.62;100476.34;5011762;28;20487;-81
2023/11/16 04:11:46;;;;;;;4.53;0.70;;;;;;;8.73;96.60;100465.00;4992208;28;20155;-78
2023/11/16 04:14:17;;;;;;;2.15;0.90;;;;;;;8.71;95.77;100464.16;5015243;28;20049;-82
2023/11/16 04:16:52;;;;;;;2.38;0.60;;;;;;;8.73;94.72;100464.13;5013017;28;20045;-79
2023/11/16 04:19:22;;;;;;;6.57;0.80;;;;;;;8.68;94.92;100465.91;5018097;28;20528;-77
2023/11/16 04:21:51;;;;;;;2.42;0.50;;;;;;;8.71;93.98;100458.94;4999977;28;20128;-79
2023/11/16 04:24:22;;;;;;;0.75;0.55;;;;;;;8.75;94.79;100465.88;5019919;28;20679;-81
2023/11/16 04:26:52;;;;;;;2.35;0.65;;;;;;;8.72;94.59;100457.19;5022107;28;20615;-81
2023/11/16 04:29:23;;;;;;;7.18;0.90;;;;;;;8.67;94.96;100458.94;5005924;28;20053;-77
2023/11/16 04:31:49;;;;;;;1.75;0.63;;;;;;;8.66;95.72;100460.69;5022984;28;20476;-79
2023/11/16 04:34:16;;;;;;;1.00;0.50;;;;;;;8.68;97.26;100473.72;5019636;28;20800;-79
2023/11/16 04:36:42;;;;;;;3.72;1.88;;;;;;;8.58;99.36;100471.16;5014937;28;20029;-79
2023/11/16 04:39:09;;;;;;;2.25;0.73;;;;;;;8.57;100.00;100468.56;5020950;28;20042;-78
2023/11/16 04:41:36;;;;;;;4.32;1.13;;;;;;;8.55;100.00;100475.50;5017544;28;20100;-81
2023/11/16 04:44:04;;;;;;;3.47;0.63;;;;;;;8.49;100.00;100478.16;5019337;28;20041;-79
2023/11/16 04:46:31;;;;;;;2.55;0.80;;;;;;;8.44;100.00;100475.53;5015963;28;20045;-79
2023/11/16 04:48:58;;;;;;;3.45;1.23;;;;;;;8.42;100.00;100485.06;5023240;28;20038;-79
2023/11/16 04:51:24;;;;;;;7.03;1.25;;;;;;;8.34;100.00;100486.84;5019130;28;20037;-76
2023/11/16 04:53:52;;;;;;;4.47;1.13;;;;;;;8.42;100.00;100493.78;5021984;28;20764;-77
2023/11/16 04:56:23;;;;;;;1.73;0.93;;;;;;;8.35;100.00;100489.44;4991130;28;20701;-77
2023/11/16 04:58:50;;;;;;;6.65;1.10;;;;;;;8.37;100.00;100484.22;5020913;28;20048;-76
2023/11/16 05:01:16;;;;;;;5.32;1.30;;;;;;;8.27;100.00;100483.41;5018642;28;20488;-80
2023/11/16 05:03:45;;;;;;;3.85;1.30;;;;;;;8.09;100.00;100489.50;5017133;28;20042;-77
2023/11/16 05:06:12;;;;;;;2.85;1.60;;;;;;;8.05;100.00;100495.59;5015431;28;20147;-78
2023/11/16 05:08:40;;;;;;;4.40;1.50;;;;;;;7.91;100.00;100488.66;5018043;28;20490;-80
2023/11/16 05:11:07;;;;;;;3.67;1.85;;;;;;;7.77;100.00;100495.63;5019200;28;20856;-78
2023/11/16 05:13:36;;;;;;;6.18;1.48;;;;;;;7.68;100.00;100504.31;5034102;28;20140;-78
2023/11/16 05:16:04;;;;;;;12.55;3.00;;;;;;;7.68;100.00;100498.19;4989814;28;20053;-82
2023/11/16 05:18:31;;;;;;;7.53;1.83;;;;;;;7.66;100.00;100503.41;5009528;28;20033;-83
2023/11/16 05:21:00;;;;;;;4.93;2.25;;;;;;;7.75;100.00;100510.38;5010260;28;20049;-77
2023/11/16 05:23:27;;;;;;;7.45;1.70;;;;;;;7.76;100.00;100512.13;5013066;28;20049;-77
2023/11/16 05:25:55;;;;;;;9.30;2.03;;;;;;;7.71;100.00;100519.91;5004234;28;20069;-79
2023/11/16 05:28:22;;;;;;;5.13;2.20;;;;;;;7.66;100.00;100523.41;5018931;28;20121;-79
2023/11/16 05:30:50;;;;;;;6.57;2.10;;;;;;;7.61;100.00;100526.88;5015207;28;20133;-77
2023/11/16 05:33:17;;;;;;;4.53;1.85;;;;;;;7.57;100.00;100525.16;5019716;28;20041;-77
2023/11/16 05:35:44;;;;;;;1.45;1.20;;;;;;;7.56;100.00;100520.78;4999816;28;20044;-83
2023/11/16 05:38:11;;;;;;;6.28;1.25;;;;;;;7.54;100.00;100525.13;5020480;28;20057;-78
2023/11/16 05:40:39;;;;;;;5.80;1.58;;;;;;;7.53;100.00;100527.72;5024401;28;20041;-79
2023/11/16 05:43:05;;;;;;;0.80;0.63;;;;;;;7.53;100.00;100528.59;5003537;28;20085;-78
2023/11/16 05:45:32;;;;;;;4.78;2.13;;;;;;;7.49;100.00;100516.44;5013493;28;20037;-82
2023/11/16 05:47:58;;;;;;;2.17;0.77;;;;;;;7.51;100.00;100526.84;5025228;28;20038;-77
2023/11/16 05:50:25;;;;;;;2.00;0.85;;;;;;;7.48;100.00;100524.25;5020149;28;20072;-77
2023/11/16 05:52:52;;;;;;;4.97;0.88;;;;;;;7.45;100.00;100525.09;5014508;28;20064;-78
2023/11/16 05:55:20;;;;;;;3.67;1.02;;;;;;;7.45;100.00;100538.97;5012997;28;20045;-79
2023/11/16 05:57:47;;;;;;;2.80;0.75;;;;;;;7.41;100.00;100545.06;5017833;28;20552;-78
2023/11/16 06:00:15;;;;;;;2.33;0.73;;;;;;;7.42;100.00;100546.81;5017786;28;20042;-79
2023/11/16 06:02:42;;;;;;;5.72;1.73;;;;;;;7.48;100.00;100552.91;5019010;28;20046;-77
2023/11/16 06:05:11;;;;;;;3.85;0.70;;;;;;;7.49;100.00;100562.44;5017149;28;20045;-80
2023/11/16 06:07:39;;;;;;;3.92;0.95;;;;;;;7.57;100.00;100561.63;5001720;28;20045;-80
2023/11/16 06:10:06;;;;;;;2.95;0.93;;;;;;;7.59;100.00;100562.47;5014412;28;20049;-78
2023/11/16 06:12:34;;;;;;;6.10;1.35;;;;;;;7.58;100.00;100559.88;5012314;28;20057;-82
2023/11/16 06:15:00;;;;;;;14.13;2.35;;;;;;;7.61;100.00;100560.75;5024777;28;20501;-77
2023/11/16 06:17:27;;;;;;;4.55;1.50;;;;;;;7.59;100.00;100567.69;4999752;28;20065;-81
2023/11/16 06:19:53;;;;;;;7.05;1.60;;;;;;;7.64;100.00;100574.63;5013733;28;20052;-78
2023/11/16 06:22:21;;;;;;;3.50;2.00;;;;;;;7.64;100.00;100569.41;5014647;28;20158;-77
2023/11/16 06:24:47;;;;;;;4.43;1.52;;;;;;;7.64;100.00;100574.63;5010982;28;20057;-79
2023/11/16 06:27:14;;;;;;;5.32;1.50;;;;;;;7.60;100.00;100571.13;5012384;28;20069;-78
2023/11/16 06:29:42;;;;;;;5.97;1.73;;;;;;;7.52;100.00;100576.34;5016962;28;20064;-82
2023/11/16 06:32:08;;;;;;;7.13;2.08;;;;;;;7.51;100.00;100573.72;5019287;28;20041;-79
2023/11/16 06:34:35;;;;;;;5.10;1.88;;;;;;;7.49;100.00;100572.88;5008980;28;20196;-81
2023/11/16 06:37:04;;;;;;;3.50;1.20;;;;;;;7.42;100.00;100578.06;5014300;28;20152;-77
2023/11/16 06:39:30;;;;;;;8.65;2.00;;;;;;;7.39;100.00;100578.06;5018186;28;20064;-77
2023/11/16 06:41:57;;;;;;;6.68;1.92;;;;;;;7.35;100.00;100585.84;5015955;28;20126;-79
2023/11/16 06:44:24;;;;;;;6.03;1.30;;;;;;;7.29;100.00;100589.31;5002788;28;20156;-77
2023/11/16 06:46:52;;;;;;;3.20;1.27;;;;;;;7.29;100.00;100587.56;5018698;28;20536;-78
2023/11/16 06:49:19;;;;;;;7.53;1.55;;;;;;;7.25;100.00;100590.16;5017831;28;20111;-78
2023/11/16 06:51:46;;;;;;;6.53;1.40;;;;;;;7.21;100.00;100597.09;4999010;28;20637;-76
2023/11/16 06:54:14;;;;;;;7.05;1.55;;;;;;;7.09;100.00;100600.50;4997704;28;20504;-78
2023/11/16 06:56:40;;;;;;;9.65;1.52;;;;;;;7.08;100.00;100606.56;5022047;28;20508;-77
2023/11/16 06:59:13;;;;;;;4.68;1.40;;;;;;;7.01;100.00;100609.13;5016858;28;20180;-79
2023/11/16 07:01:43;;;;;;;9.88;1.33;;;;;;;6.92;100.00;100612.56;5001026;28;20430;-79
2023/11/16 07:04:11;;;;;;;7.82;1.50;;;;;;;6.85;100.00;100606.44;5015216;28;20156;-77
2023/11/16 07:06:38;;;;;;;4.22;1.33;;;;;;;6.81;100.00;100611.66;5017068;28;20153;-81
2023/11/16 07:09:05;;;;;;;5.85;1.70;;;;;;;6.73;100.00;100616.81;5017774;28;20041;-78
2023/11/16 07:11:32;;;;;;;3.75;2.35;;;;;;;6.74;100.00;100621.13;5015287;28;20057;-79
2023/11/16 07:13:58;;;;;;;5.50;2.35;;;;;;;6.71;100.00;100621.13;5012812;28;20051;-79
2023/11/16 07:16:25;;;;;;;26.08;3.22;;;;;;;6.71;100.00;100621.97;5015046;28;20041;-76
2023/11/16 07:18:52;;;;;;;6.85;1.52;;;;;;;6.78;100.00;100628.13;5014815;28;20806;-77
2023/11/16 07:21:22;;;;;;;3.05;1.58;;;;;;;6.90;100.00;100624.72;5000512;28;20045;-78
2023/11/16 07:23:48;;;;;;;6.38;1.48;;;;;;;6.97;100.00;100636.03;5029840;28;20045;-78
2023/11/16 07:26:18;;;;;;;6.05;1.30;;;;;;;7.01;100.00;100640.38;4998420;28;20535;-77
2023/11/16 07:28:47;;;;;;;10.65;1.88;;;;;;;7.06;100.00;100636.06;5018992;28;20207;-78
2023/11/16 07:31:19;;;;;;;5.90;1.15;;;;;;;7.04;100.00;100635.16;5013312;28;20041;-77
2023/11/16 07:33:51;;;;;;;10.45;1.77;;;;;;;7.01;100.00;100635.16;5013931;28;20500;-78
2023/11/16 07:36:26;;;;;;;4.18;1.10;;;;;;;6.92;100.00;100641.19;5031047;28;20552;-77
2023/11/16 07:38:59;;;;;;;4.75;1.55;;;;;;;6.91;100.00;100640.31;5016926;28;20579;-80
2023/11/16 07:41:28;;;;;;;6.03;1.85;;;;;;;6.82;100.00;100636.78;5003027;28;20041;-78
2023/11/16 07:43:56;;;;;;;9.18;1.40;;;;;;;6.76;100.00;100646.28;5013320;28;20191;-77
2023/11/16 07:46:23;;;;;;;7.00;1.55;;;;;;;6.75;100.00;100651.50;5032564;28;20095;-80
2023/11/16 07:48:50;;;;;;;5.53;1.65;;;;;;;6.72;100.00;100659.28;5016484;28;20045;-78
2023/11/16 07:51:19;;;;;;;4.47;1.83;;;;;;;6.74;100.00;100662.75;5002335;28;20046;-77
2023/11/16 07:53:53;;;;;;;8.80;1.65;;;;;;;6.74;100.00;100661.03;5015064;28;20071;-77
2023/11/16 07:56:20;;;;;;;4.82;0.98;;;;;;;6.73;100.00;100669.69;5014912;28;20498;-80
2023/11/16 07:58:49;;;;;;;10.30;2.00;;;;;;;6.72;100.00;100669.69;5014874;28;20814;-79
2023/11/16 08:01:21;;;;;;;2.30;0.65;;;;;;;6.72;100.00;100667.94;5014069;28;20053;-79
2023/11/16 08:03:55;;;;;;;2.28;0.73;;;;;;;6.73;100.00;100674.03;5014763;28;20089;-77
2023/11/16 08:06:25;;;;;;;;;;;;;;;6.73;100.00;100684.44;5028747;28;20638;-76
2023/11/16 08:08:52;;;;;;;3.88;0.90;;;;;;;6.76;100.00;100682.72;5015200;28;20537;-78
2023/11/16 08:11:19;;;;;;;1.48;1.13;;;;;;;6.75;100.00;100681.00;5014769;28;20053;-78
2023/11/16 08:13:48;;;;;;;0.73;0.70;;;;;;;6.73;100.00;100682.69;4995484;28;20488;-80
2023/11/16 08:16:21;;;;;;;3.25;0.57;;;;;;;6.70;100.00;100679.19;5012528;28;20080;-79
2023/11/16 08:18:53;;;;;;;2.92;0.40;;;;;;;6.69;100.00;100678.34;5010198;28;20053;-78
2023/11/16 08:21:20;;;;;;;2.08;0.45;;;;;;;6.70;100.00;100677.50;5018062;28;20183;-77
2023/11/16 08:23:48;;;;;;;2.92;0.80;;;;;;;6.73;100.00;100676.63;5014182;28;20751;-80
2023/11/16 08:26:18;;;;;;;2.88;1.08;;;;;;;6.69;100.00;100674.84;5015280;28;20594;-78
2023/11/16 08:28:46;;;;;;;3.67;1.13;;;;;;;6.73;100.00;100671.44;5009875;28;20060;-80
2023/11/16 08:31:14;;;;;;;1.45;0.52;;;;;;;6.74;100.00;100668.84;5011254;28;20068;-77
2023/11/16 08:33:41;;;;;;;3.90;0.95;;;;;;;6.74;100.00;100661.03;5017412;28;20052;-79
2023/11/16 08:36:10;;;;;;;6.28;1.77;;;;;;;6.75;100.00;100664.50;5012857;28;20126;-77
2023/11/16 08:38:41;;;;;;;7.80;1.08;;;;;;;6.74;100.00;100658.44;5015893;28;20045;-78
2023/11/16 08:41:09;;;;;;;9.63;1.52;;;;;;;6.78;100.00;100651.53;5014648;28;20141;-78
2023/11/16 08:43:40;;;;;;;3.20;0.85;;;;;;;6.82;100.00;100648.06;5016260;28;20700;-76
2023/11/16 08:46:07;;;;;;;4.45;0.45;;;;;;;6.83;100.00;100643.72;5000190;28;20068;-79
2023/11/16 08:48:34;;;;;;;0.68;0.10;;;;;;;6.87;100.00;100648.97;5015062;28;20047;-77
2023/11/16 08:51:05;;;;;;;3.40;0.20;;;;;;;6.89;100.00;100643.78;5015551;28;20037;-77
2023/11/16 08:53:35;;;;;;;3.50;0.40;;;;;;;6.95;100.00;100646.44;5001122;28;20056;-80
2023/11/16 08:56:04;;;;;;;3.40;0.88;;;;;;;6.99;100.00;100642.09;5011663;28;20246;-78
2023/11/16 08:58:47;;;;;;;4.07;0.47;;;;;;;7.01;100.00;100646.44;5012211;28;20050;-81
2023/11/16 09:01:17;;;;;;;1.73;0.87;;;;;;;7.03;100.00;100654.28;5018091;28;20148;-80
2023/11/16 09:03:49;;;;;;;5.85;1.27;;;;;;;7.05;100.00;100661.25;5001198;28;20049;-82
2023/11/16 09:06:21;;;;;;;7.60;1.40;;;;;;;7.03;100.00;100656.88;5000733;28;20041;-78
2023/11/16 09:08:53;;;;;;;3.63;0.70;;;;;;;7.12;100.00;100643.91;5014354;28;20485;-78
2023/11/16 09:11:22;;;;;;;6.20;2.13;;;;;;;7.15;100.00;100648.25;5013710;28;20144;-79
2023/11/16 09:13:52;;;;;;;1.63;0.80;;;;;;;7.21;100.00;100648.28;5014252;28;20045;-77
2023/11/16 09:16:18;;;;;;;4.30;1.50;;;;;;;7.24;100.00;100666.53;5004169;28;20048;-79
2023/11/16 09:18:48;;;;;;;3.45;0.85;;;;;;;7.28;100.00;100663.94;5033328;28;20057;-77
2023/11/16 09:21:15;;;;;;;1.75;0.50;;;;;;;7.29;100.00;100667.44;4998842;28;20049;-78
2023/11/16 09:23:43;;;;;;;7.00;0.70;;;;;;;7.33;100.00;100660.50;5016696;28;20601;-79
2023/11/16 09:26:09;;;;;;;2.63;1.08;;;;;;;7.48;100.00;100670.97;5004209;28;20556;-80
2023/11/16 09:28:38;;;;;;;1.13;1.02;;;;;;;7.81;100.00;100671.97;4999526;28;20053;-79
2023/11/16 09:31:11;;;;;;;2.85;0.60;;;;;;;7.98;100.00;100665.91;4995617;28;20145;-77
2023/11/16 09:33:41;;;;;;;2.45;0.40;;;;;;;8.07;100.00;100661.59;5015319;28;20048;-78
2023/11/16 09:36:10;;;;;;;5.82;0.70;;;;;;;8.09;98.84;100664.19;4997526;28;20049;-79
2023/11/16 09:38:36;;;;;;;3.35;0.73;;;;;;;8.24;98.85;100660.75;5016203;28;20108;-78
2023/11/16 09:41:25;;;;;;;3.30;0.80;;;;;;;8.36;98.22;100650.31;4999204;28;20058;-76
2023/11/16 09:43:55;;;;;;;5.15;0.80;;;;;;;8.49;97.51;100645.97;5002181;28;20514;-79
2023/11/16 09:46:27;;;;;;;6.43;1.30;;;;;;;8.42;95.68;100650.31;5003135;28;20058;-77
2023/11/16 09:48:54;;;;;;;3.13;0.77;;;;;;;8.49;94.14;100658.19;5033284;28;20056;-83
2023/11/16 09:51:24;;;;;;;2.83;0.52;;;;;;;8.54;93.22;100665.13;5016724;28;20054;-77
2023/11/16 09:53:51;;;;;;;1.85;0.50;;;;;;;8.55;94.00;100668.59;5012019;28;20045;-78
2023/11/16 09:56:27;;;;;;;1.08;0.50;;;;;;;8.66;93.11;100682.50;5016947;28;20453;-77
2023/11/16 09:59:02;;;;;;;3.65;0.88;;;;;;;8.89;92.46;100671.16;5002265;28;20046;-77
2023/11/16 10:01:31;;;;;;;1.75;1.00;;;;;;;9.15;90.83;100663.28;5004187;28;20050;-77
2023/11/16 10:04:01;;;;;;;3.38;1.27;;;;;;;9.24;89.19;100650.19;4998898;28;20056;-79
2023/11/16 10:06:29;;;;;;;6.68;1.65;;;;;;;9.27;89.63;100647.56;5013258;28;20053;-80
2023/11/16 10:08:56;;;;;;;6.28;1.42;;;;;;;9.50;88.67;100638.75;4999031;28;20049;-77
2023/11/16 10:11:25;;;;;;;5.85;2.20;;;;;;;9.25;85.80;100630.16;5009897;28;20814;-77
2023/11/16 10:13:56;;;;;;;4.78;1.60;;;;;;;9.03;86.85;100622.38;5014602;28;20045;-77
2023/11/16 10:16:28;;;;;;;7.43;2.00;;;;;;;9.10;87.18;100618.03;5009535;28;20037;-81
2023/11/16 10:19:06;;;;;;;4.75;2.28;;;;;;;9.15;87.23;100621.50;5016957;28;20580;-83
2023/11/16 10:21:34;;;;;;;3.30;1.65;;;;;;;9.07;85.64;100624.13;5031165;28;20038;-78
2023/11/16 10:24:12;;;;;;;2.22;1.35;;;;;;;8.91;85.39;100618.06;5015857;28;20564;-79
2023/11/16 10:26:51;;;;;;;3.28;1.13;;;;;;;8.81;87.36;100612.88;5016870;28;20165;-80
2023/11/16 10:29:18;;;;;;;2.53;0.73;;;;;;;8.67;85.43;100613.78;4999641;28;20639;-78
2023/11/16 10:31:48;;;;;;;1.30;0.63;;;;;;;8.63;87.08;100604.22;5017629;28;20053;-78
2023/11/16 10:34:24;;;;;;;4.25;0.80;;;;;;;8.67;88.72;100600.75;5002093;28;20071;-77
2023/11/16 10:36:55;;;;;;;1.50;0.52;;;;;;;8.69;87.39;100609.41;5018889;28;20042;-81
2023/11/16 10:39:28;;;;;;;1.33;0.77;;;;;;;8.53;85.53;100608.59;5019384;28;20052;-76
2023/11/16 10:41:58;;;;;;;2.22;0.57;;;;;;;8.39;84.14;100612.91;5035488;28;20049;-80
2023/11/16 10:44:25;;;;;;;1.83;0.95;;;;;;;8.35;85.25;100611.19;5018184;28;20046;-78
2023/11/16 10:46:54;;;;;;;1.67;0.70;;;;;;;8.25;83.56;100613.78;5015991;28;20052;-77
2023/11/16 10:49:21;;;;;;;4.22;1.40;;;;;;;8.19;85.14;100605.09;5015248;28;20127;-76
2023/11/16 10:51:54;;;;;;;11.30;4.47;;;;;;;8.17;85.71;100610.28;5019413;28;20050;-78
2023/11/16 10:54:25;;;;;;;3.38;0.93;;;;;;;8.19;85.74;100607.72;5031522;28;20043;-83
2023/11/16 10:56:54;;;;;;;2.60;0.55;;;;;;;8.20;85.73;100609.44;5029325;28;20049;-80
2023/11/16 10:59:27;;;;;;;1.58;0.60;;;;;;;8.22;85.14;100603.34;5017312;28;20766;-81
2023/11/16 11:01:57;;;;;;;1.48;0.65;;;;;;;8.34;85.21;100593.78;5015538;28;20045;-79
2023/11/16 11:04:23;;;;;;;1.75;0.45;;;;;;;8.45;82.92;100586.84;5017311;28;20418;-79
2023/11/16 11:06:51;;;;;;;1.02;0.40;;;;;;;8.56;81.19;100579.00;5013987;28;20449;-79
2023/11/16 11:09:22;;;;;;;2.40;1.02;;;;;;;8.58;80.98;100579.88;5014315;28;20046;-80
2023/11/16 11:11:53;;;;;;;3.92;0.52;;;;;;;8.71;79.70;100578.13;5017268;28;20536;-79
2023/11/16 11:14:26;;;;;;;1.25;0.50;;;;;;;8.85;79.40;100578.94;5019121;28;20143;-81
2023/11/16 11:16:56;;;;;;;6.40;0.68;;;;;;;8.98;78.64;100571.91;5021224;28;20500;-79
2023/11/16 11:19:29;;;;;;;2.65;0.60;;;;;;;9.09;77.39;100569.28;5014227;28;20857;-82
2023/11/16 11:22:01;;;;;;;2.72;0.60;;;;;;;9.27;77.73;100565.72;5031325;28;20457;-81
2023/11/16 11:24:27;;;;;;;2.90;0.55;;;;;;;9.39;76.83;100565.66;5019139;28;20041;-77
2023/11/16 11:26:54;;;;;;;3.95;0.63;;;;;;;9.36;77.12;100559.56;4999034;28;20553;-79
2023/11/16 11:29:23;;;;;;;1.75;0.70;;;;;;;9.31;75.23;100566.56;5015549;28;20041;-82
2023/11/16 11:32:20;;;;;;;3.50;0.40;;;;;;;9.11;75.44;100570.13;5007200;28;20057;-78
2023/11/16 11:34:49;;;;;;;1.70;0.50;;;;;;;8.88;75.28;100572.84;5002010;28;20053;-77